createdAt,value
2018-07-21T00:00:00.496Z,9.4
2018-07-21T00:05:00.406Z,9.0
2018-07-21T00:10:00.590Z,9.1
2018-07-21T00:15:00.445Z,9.4
2018-07-21T00:20:00.536Z,10.4
2018-07-21T00:25:00.423Z,10.8
2018-07-21T00:30:00.518Z,11.2
2018-07-21T00:35:00.454Z,11.4
2018-07-21T00:40:00.526Z,11.3
2018-07-21T00:45:00.459Z,10.1
2018-07-21T00:50:00.474Z,9.8
2018-07-21T00:55:00.437Z,10.0
2018-07-21T01:00:00.472Z,9.4
2018-07-21T01:05:00.465Z,9.6
2018-07-21T01:10:00.630Z,10.0
2018-07-21T01:15:00.450Z,10.2
2018-07-21T01:20:00.482Z,10.0
2018-07-21T01:25:00.518Z,9.9
2018-07-21T01:30:00.546Z,9.5
2018-07-21T01:35:00.477Z,9.4
2018-07-21T01:40:00.514Z,9.3
2018-07-21T01:45:00.484Z,8.7
2018-07-21T01:50:00.589Z,9.2
2018-07-21T01:55:00.523Z,9.3
2018-07-21T02:00:00.560Z,9.7
2018-07-21T02:05:00.484Z,9.6
2018-07-21T02:10:00.557Z,9.8
2018-07-21T02:15:00.496Z,10.0
2018-07-21T02:20:00.523Z,10.6
2018-07-21T02:25:00.469Z,10.5
2018-07-21T02:30:00.591Z,10.6
2018-07-21T02:35:00.502Z,11.4
2018-07-21T02:40:00.579Z,11.0
2018-07-21T02:45:00.473Z,11.1
2018-07-21T02:50:00.513Z,11.6
2018-07-21T02:55:00.474Z,12.0
2018-07-21T03:00:00.603Z,12.4
2018-07-21T03:05:00.514Z,12.8
2018-07-21T03:10:00.547Z,13.2
2018-07-21T03:15:00.518Z,13.3
2018-07-21T03:20:00.581Z,12.6
2018-07-21T03:25:00.543Z,11.8
2018-07-21T03:30:00.592Z,11.9
2018-07-21T03:35:00.519Z,11.4
2018-07-21T03:40:00.524Z,10.6
2018-07-21T03:45:00.532Z,11.6
2018-07-21T03:50:00.530Z,11.8
2018-07-21T03:55:00.564Z,11.7
2018-07-21T04:00:00.666Z,11.5
2018-07-21T04:05:00.504Z,12.6
2018-07-21T04:10:00.605Z,11.9
2018-07-21T04:15:00.544Z,12.2
2018-07-21T04:20:00.682Z,12.4
2018-07-21T04:25:00.544Z,12.5
2018-07-21T04:30:00.696Z,12.3
2018-07-21T04:35:00.553Z,13.3
2018-07-21T04:40:00.564Z,13.4
2018-07-21T04:45:00.557Z,13.8
2018-07-21T04:50:00.559Z,13.9
2018-07-21T04:55:00.564Z,13.8
2018-07-21T05:00:00.697Z,13.4
2018-07-21T05:05:00.565Z,13.2
2018-07-21T05:10:00.573Z,13.9
2018-07-21T05:15:00.575Z,14.5
2018-07-21T05:20:00.600Z,15.2
2018-07-21T05:25:00.583Z,15.6
2018-07-21T05:30:00.707Z,15.5
2018-07-21T05:35:00.580Z,14.1
2018-07-21T05:40:00.591Z,13.4
2018-07-21T05:45:00.689Z,12.8
2018-07-21T05:50:00.596Z,12.0
2018-07-21T05:55:00.583Z,12.7
2018-07-21T06:00:00.591Z,12.2
2018-07-21T06:05:00.557Z,11.8
2018-07-21T06:10:00.607Z,11.6
2018-07-21T06:15:00.598Z,11.6
2018-07-21T06:20:05.672Z,10.9
2018-07-21T06:25:00.579Z,11.6
2018-07-21T06:30:00.605Z,11.4
2018-07-21T06:35:00.611Z,11.5
2018-07-21T06:40:00.678Z,11.7
2018-07-21T06:45:00.624Z,11.5
2018-07-21T06:50:00.682Z,11.2
2018-07-21T06:55:00.613Z,11.7
2018-07-21T07:00:00.622Z,11.5
2018-07-21T07:05:00.627Z,11.2
2018-07-21T07:10:00.625Z,11.4
2018-07-21T07:15:00.625Z,12.4
2018-07-21T07:20:00.627Z,12.9
2018-07-21T07:25:00.638Z,13.1
2018-07-21T07:30:00.770Z,13.0
2018-07-21T07:35:00.634Z,13.4
2018-07-21T07:40:00.663Z,12.9
2018-07-21T07:45:00.647Z,12.4
2018-07-21T07:50:00.639Z,12.5
2018-07-21T07:55:00.645Z,12.8
2018-07-21T08:00:00.783Z,12.4
2018-07-21T08:10:00.728Z,13.0
2018-07-21T08:15:00.658Z,12.7
2018-07-21T08:20:00.655Z,12.6
2018-07-21T08:25:00.629Z,13.0
2018-07-21T08:30:00.793Z,12.8
2018-07-21T08:35:00.666Z,12.9
2018-07-21T08:45:00.798Z,12.9
2018-07-21T08:50:00.668Z,12.7
2018-07-21T08:55:00.638Z,12.9
2018-07-21T09:00:00.806Z,12.3
2018-07-21T09:05:00.682Z,12.1
2018-07-21T09:10:00.740Z,13.4
2018-07-21T09:15:00.682Z,13.4
2018-07-21T09:20:00.746Z,13.3
2018-07-21T09:25:00.649Z,13.6
2018-07-21T09:30:00.683Z,13.6
2018-07-21T09:35:05.687Z,12.2
2018-07-21T09:40:00.689Z,13.0
2018-07-21T09:45:00.661Z,13.2
2018-07-21T10:00:00.698Z,13.5
2018-07-21T10:05:00.698Z,12.8
2018-07-21T10:15:00.712Z,12.5
2018-07-21T10:20:00.975Z,12.8
2018-07-21T10:25:00.717Z,12.4
2018-07-21T10:30:00.834Z,12.4
2018-07-21T10:35:00.685Z,12.2
2018-07-21T10:40:00.842Z,13.0
2018-07-21T10:45:00.716Z,13.1
2018-07-21T10:50:00.785Z,13.6
2018-07-21T11:00:00.730Z,13.7
2018-07-21T11:05:00.725Z,13.2
2018-07-21T11:15:00.805Z,13.8
2018-07-21T11:20:00.745Z,13.5
2018-07-21T11:25:00.733Z,13.4
2018-07-21T11:30:00.770Z,13.4
2018-07-21T11:40:00.739Z,13.6
2018-07-21T11:45:00.712Z,14.3
2018-07-21T11:50:00.821Z,14.2
2018-07-21T11:55:00.749Z,14.4
2018-07-21T12:00:00.758Z,14.2
2018-07-21T12:05:00.761Z,13.7
2018-07-21T12:10:00.887Z,12.9
2018-07-21T12:15:00.769Z,13.0
2018-07-21T12:20:00.773Z,12.8
2018-07-21T12:25:05.766Z,13.1
2018-07-21T12:30:00.775Z,12.9
2018-07-21T12:35:00.774Z,13.7
2018-07-21T12:40:00.953Z,13.2
2018-07-21T12:45:00.772Z,13.2
2018-07-21T12:50:00.839Z,12.9
2018-07-21T13:00:00.848Z,12.4
2018-07-21T13:05:00.784Z,12.8
2018-07-21T13:10:00.915Z,12.5
2018-07-21T13:15:00.789Z,12.7
2018-07-21T13:20:00.855Z,12.6
2018-07-21T13:25:00.758Z,12.8
2018-07-21T13:30:00.858Z,12.5
2018-07-21T13:35:00.795Z,12.9
2018-07-21T13:40:00.927Z,13.2
2018-07-21T13:45:00.767Z,13.2
2018-07-21T13:50:00.866Z,13.0
2018-07-21T13:55:00.855Z,13.4
2018-07-21T14:00:00.875Z,13.5
2018-07-21T14:05:00.816Z,13.8
2018-07-21T14:10:00.954Z,13.7
2018-07-21T14:15:00.813Z,13.8
2018-07-21T14:20:00.922Z,13.5
2018-07-21T14:25:00.819Z,13.7
2018-07-21T14:30:01.100Z,13.0
2018-07-21T14:35:00.826Z,13.4
2018-07-21T14:40:00.938Z,13.3
2018-07-21T14:45:00.802Z,13.2
2018-07-21T14:50:00.894Z,12.3
2018-07-21T14:55:00.939Z,12.7
2018-07-21T15:00:01.014Z,12.3
2018-07-21T15:10:00.839Z,12.0
2018-07-21T15:15:00.841Z,12.0
2018-07-21T15:20:00.974Z,11.7
2018-07-21T15:25:00.850Z,12.0
2018-07-21T15:30:00.914Z,12.4
2018-07-21T15:35:00.855Z,11.9
2018-07-21T15:40:00.985Z,12.4
2018-07-21T15:45:00.864Z,13.0
2018-07-21T15:50:00.992Z,12.7
2018-07-21T15:55:00.832Z,12.8
2018-07-21T16:00:00.935Z,13.6
2018-07-21T16:05:00.874Z,14.1
2018-07-21T16:10:01.002Z,13.9
2018-07-21T16:15:03.873Z,14.1
2018-07-21T16:20:01.011Z,14.3
2018-07-21T16:25:00.879Z,15.2
2018-07-21T16:30:00.946Z,15.4
2018-07-21T16:40:00.956Z,15.5
2018-07-21T16:45:00.886Z,15.5
2018-07-21T16:50:01.019Z,14.9
2018-07-21T16:55:00.893Z,14.6
2018-07-21T17:00:01.020Z,14.5
2018-07-21T17:05:00.908Z,14.7
2018-07-21T17:10:00.960Z,14.8
2018-07-21T17:15:00.900Z,14.8
2018-07-21T17:20:01.031Z,15.2
2018-07-21T17:30:00.985Z,15.2
2018-07-21T17:35:00.902Z,15.9
2018-07-21T17:40:00.973Z,15.6
2018-07-21T17:45:00.916Z,16.3
2018-07-21T17:50:01.044Z,16.7
2018-07-21T17:55:00.912Z,17.1
2018-07-21T18:00:00.978Z,16.4
2018-07-21T18:05:00.916Z,16.5
2018-07-21T18:10:00.988Z,16.1
2018-07-21T18:15:00.927Z,15.9
2018-07-21T18:20:01.085Z,15.5
2018-07-21T18:25:00.937Z,16.5
2018-07-21T18:30:00.991Z,16.8
2018-07-21T18:35:00.933Z,17.1
2018-07-21T18:40:00.963Z,17.5
2018-07-21T18:45:00.936Z,18.1
2018-07-21T18:50:01.064Z,17.6
2018-07-21T18:55:00.938Z,18.4
2018-07-21T19:00:01.005Z,18.2
2018-07-21T19:05:00.949Z,18.4
2018-07-21T19:10:01.028Z,18.2
2018-07-21T19:15:00.950Z,18.2
2018-07-21T19:20:01.086Z,18.0
2018-07-21T19:25:00.953Z,18.2
2018-07-21T19:30:01.088Z,18.0
2018-07-21T19:40:01.102Z,17.7
2018-07-21T19:45:00.966Z,17.5
2018-07-21T19:50:00.965Z,17.4
2018-07-21T20:00:01.102Z,17.5
2018-07-21T20:05:00.973Z,18.5
2018-07-21T20:10:01.039Z,18.7
2018-07-21T20:15:00.977Z,19.1
2018-07-21T20:20:01.046Z,19.2
2018-07-21T20:30:01.114Z,18.7
2018-07-21T20:35:00.983Z,18.6
2018-07-21T20:40:01.060Z,18.2
2018-07-21T20:45:00.990Z,18.4
2018-07-21T20:55:01.060Z,18.0
2018-07-21T21:00:01.196Z,18.2
2018-07-21T21:05:01.004Z,17.9
2018-07-21T21:10:01.072Z,17.1
2018-07-21T21:15:01.002Z,17.6
2018-07-21T21:20:01.069Z,17.2
2018-07-21T21:25:01.012Z,17.6
2018-07-21T21:30:01.143Z,17.6
2018-07-21T21:35:01.018Z,18.0
2018-07-21T21:40:01.088Z,18.1
2018-07-21T21:45:01.014Z,19.1
2018-07-21T21:50:01.084Z,18.2
2018-07-21T22:00:01.157Z,18.4
2018-07-21T22:05:00.993Z,18.5
2018-07-21T22:10:01.092Z,17.6
2018-07-21T22:15:01.034Z,17.4
2018-07-21T22:20:01.099Z,17.8
2018-07-21T22:25:01.038Z,16.9
2018-07-21T22:30:01.169Z,15.9
2018-07-21T22:35:01.049Z,15.8
2018-07-21T22:40:01.108Z,15.7
2018-07-21T22:45:01.046Z,14.9
2018-07-21T22:55:01.144Z,13.9
2018-07-21T23:00:01.184Z,13.4
2018-07-21T23:05:01.079Z,13.5
2018-07-21T23:10:01.126Z,12.8
2018-07-21T23:15:01.067Z,12.8
2018-07-21T23:20:01.128Z,13.4
2018-07-21T23:25:01.062Z,13.6
2018-07-21T23:30:01.195Z,13.1
2018-07-21T23:35:01.089Z,13.7
2018-07-21T23:40:01.134Z,13.1
2018-07-21T23:45:01.072Z,12.5
2018-07-21T23:50:01.134Z,11.7
2018-07-21T23:55:01.072Z,11.5
